KMWL/MWL METAR and TAF weather

Enter ICAO airport designator
Station Type Date Time Source
KMWL METAR 2023/01/30 10:53 UTC NOAA

KMWL 301053Z AUTO 35014KT 10SM OVC008 M04/M06 A3027 RMK AO2 SLP257 T10391061


Station Type Date Time Source
KMWL Decoded METAR 2023/01/30 10:53 UTC NOAA

MINERAL WELLS AIRPORT, TX, United States (KMWL) 32-47N 098-04W 284M
Jan 30, 2023 - 05:53 AM EST / 2023.01.30 1053 UTC
Wind: from the N (350 degrees) at 16 MPH (14 KT):0
Visibility: 10 mile(s):0
Sky conditions: overcast
Temperature: 25.0 F (-3.9 C)
Windchill: 12 F (-11 C):1
Dew Point: 21.0 F (-6.1 C)
Relative Humidity: 84%
Pressure (altimeter): 30.27 in. Hg (1025 hPa)
ob: KMWL 301053Z AUTO 35014KT 10SM OVC008 M04/M06 A3027 RMK AO2 SLP257 T10391061
cycle: 11

Station Type Date Time Source
KMWL TAF UTC NOAA

Error!

Example: see airport list